sensor_id;sensor_type;location;lat;lon;timestamp;P1;durP1;ratioP1;P2;durP2;ratioP2
62709;SDS011;48770;51.624;5.886;2023-07-16T00:00:22;4.87;;;1.47;;
62709;SDS011;48770;51.624;5.886;2023-07-16T00:02:47;6.22;;;1.42;;
62709;SDS011;48770;51.624;5.886;2023-07-16T00:05:12;2.13;;;1.23;;
62709;SDS011;48770;51.624;5.886;2023-07-16T00:07:37;5.83;;;1.43;;
62709;SDS011;48770;51.624;5.886;2023-07-16T00:10:03;2.23;;;1.30;;
62709;SDS011;48770;51.624;5.886;2023-07-16T00:12:28;4.15;;;1.45;;
62709;SDS011;48770;51.624;5.886;2023-07-16T00:14:54;2.93;;;1.30;;
62709;SDS011;48770;51.624;5.886;2023-07-16T00:17:20;3.75;;;1.35;;
62709;SDS011;48770;51.624;5.886;2023-07-16T00:19:45;3.38;;;1.30;;
62709;SDS011;48770;51.624;5.886;2023-07-16T00:22:11;3.75;;;1.50;;
62709;SDS011;48770;51.624;5.886;2023-07-16T00:24:36;3.33;;;1.50;;
62709;SDS011;48770;51.624;5.886;2023-07-16T00:27:01;4.10;;;1.20;;
62709;SDS011;48770;51.624;5.886;2023-07-16T00:29:27;2.88;;;1.20;;
62709;SDS011;48770;51.624;5.886;2023-07-16T00:31:52;4.13;;;1.23;;
62709;SDS011;48770;51.624;5.886;2023-07-16T00:34:17;4.50;;;1.43;;
62709;SDS011;48770;51.624;5.886;2023-07-16T00:36:43;3.67;;;1.40;;
62709;SDS011;48770;51.624;5.886;2023-07-16T00:39:08;4.43;;;1.50;;
62709;SDS011;48770;51.624;5.886;2023-07-16T00:41:35;3.85;;;1.35;;
62709;SDS011;48770;51.624;5.886;2023-07-16T00:44:00;5.32;;;1.17;;
62709;SDS011;48770;51.624;5.886;2023-07-16T00:46:25;6.00;;;1.37;;
62709;SDS011;48770;51.624;5.886;2023-07-16T00:48:50;3.80;;;1.52;;
62709;SDS011;48770;51.624;5.886;2023-07-16T00:51:16;5.30;;;1.40;;
62709;SDS011;48770;51.624;5.886;2023-07-16T00:53:43;4.68;;;1.25;;
62709;SDS011;48770;51.624;5.886;2023-07-16T00:56:09;5.45;;;1.83;;
62709;SDS011;48770;51.624;5.886;2023-07-16T00:58:35;2.85;;;1.30;;
62709;SDS011;48770;51.624;5.886;2023-07-16T01:01:01;2.30;;;1.05;;
62709;SDS011;48770;51.624;5.886;2023-07-16T01:03:26;4.05;;;1.58;;
62709;SDS011;48770;51.624;5.886;2023-07-16T01:08:35;3.85;;;1.20;;
62709;SDS011;48770;51.624;5.886;2023-07-16T01:11:05;5.93;;;1.50;;
62709;SDS011;48770;51.624;5.886;2023-07-16T01:13:31;2.30;;;1.20;;
62709;SDS011;48770;51.624;5.886;2023-07-16T01:15:57;2.40;;;1.20;;
62709;SDS011;48770;51.624;5.886;2023-07-16T01:18:22;3.83;;;1.40;;
62709;SDS011;48770;51.624;5.886;2023-07-16T01:20:48;4.55;;;1.75;;
62709;SDS011;48770;51.624;5.886;2023-07-16T01:23:26;2.75;;;1.35;;
62709;SDS011;48770;51.624;5.886;2023-07-16T01:29:05;3.10;;;1.13;;
62709;SDS011;48770;51.624;5.886;2023-07-16T01:31:32;5.30;;;1.30;;
62709;SDS011;48770;51.624;5.886;2023-07-16T01:33:58;2.80;;;1.20;;
62709;SDS011;48770;51.624;5.886;2023-07-16T01:36:25;2.85;;;1.27;;
62709;SDS011;48770;51.624;5.886;2023-07-16T01:38:51;3.17;;;1.40;;
62709;SDS011;48770;51.624;5.886;2023-07-16T01:41:17;2.75;;;1.27;;
62709;SDS011;48770;51.624;5.886;2023-07-16T01:43:43;7.20;;;1.73;;
62709;SDS011;48770;51.624;5.886;2023-07-16T01:46:09;2.58;;;1.40;;
62709;SDS011;48770;51.624;5.886;2023-07-16T01:48:35;3.67;;;1.27;;
62709;SDS011;48770;51.624;5.886;2023-07-16T01:51:02;3.22;;;0.93;;
62709;SDS011;48770;51.624;5.886;2023-07-16T01:53:27;5.57;;;1.80;;
62709;SDS011;48770;51.624;5.886;2023-07-16T01:55:53;3.78;;;1.95;;
62709;SDS011;48770;51.624;5.886;2023-07-16T01:58:18;3.35;;;1.52;;
62709;SDS011;48770;51.624;5.886;2023-07-16T02:00:43;4.43;;;1.50;;
62709;SDS011;48770;51.624;5.886;2023-07-16T02:03:09;8.40;;;1.55;;
62709;SDS011;48770;51.624;5.886;2023-07-16T02:05:34;4.53;;;1.50;;
62709;SDS011;48770;51.624;5.886;2023-07-16T02:07:59;7.43;;;1.70;;
62709;SDS011;48770;51.624;5.886;2023-07-16T02:10:25;4.97;;;1.25;;
62709;SDS011;48770;51.624;5.886;2023-07-16T02:12:51;3.67;;;1.50;;
62709;SDS011;48770;51.624;5.886;2023-07-16T02:15:16;4.32;;;1.35;;
62709;SDS011;48770;51.624;5.886;2023-07-16T02:17:43;3.58;;;1.63;;
62709;SDS011;48770;51.624;5.886;2023-07-16T02:20:08;8.02;;;1.50;;
62709;SDS011;48770;51.624;5.886;2023-07-16T02:22:35;3.53;;;1.33;;
62709;SDS011;48770;51.624;5.886;2023-07-16T02:25:01;2.90;;;1.30;;
62709;SDS011;48770;51.624;5.886;2023-07-16T02:27:27;4.68;;;1.30;;
62709;SDS011;48770;51.624;5.886;2023-07-16T02:29:52;3.88;;;1.48;;
62709;SDS011;48770;51.624;5.886;2023-07-16T02:32:18;3.38;;;1.20;;
62709;SDS011;48770;51.624;5.886;2023-07-16T02:34:43;3.47;;;1.40;;
62709;SDS011;48770;51.624;5.886;2023-07-16T02:37:08;3.88;;;1.27;;
62709;SDS011;48770;51.624;5.886;2023-07-16T02:39:34;4.70;;;1.63;;
62709;SDS011;48770;51.624;5.886;2023-07-16T02:41:59;4.07;;;1.60;;
62709;SDS011;48770;51.624;5.886;2023-07-16T02:44:25;4.07;;;1.30;;
62709;SDS011;48770;51.624;5.886;2023-07-16T02:46:50;6.63;;;1.40;;
62709;SDS011;48770;51.624;5.886;2023-07-16T02:49:15;5.53;;;1.17;;
62709;SDS011;48770;51.624;5.886;2023-07-16T02:51:41;3.63;;;1.35;;
62709;SDS011;48770;51.624;5.886;2023-07-16T02:54:06;5.35;;;1.55;;
62709;SDS011;48770;51.624;5.886;2023-07-16T02:56:32;4.53;;;1.20;;
62709;SDS011;48770;51.624;5.886;2023-07-16T02:58:57;4.85;;;1.60;;
62709;SDS011;48770;51.624;5.886;2023-07-16T03:01:22;5.50;;;1.37;;
62709;SDS011;48770;51.624;5.886;2023-07-16T03:03:47;2.72;;;1.30;;
62709;SDS011;48770;51.624;5.886;2023-07-16T03:06:13;3.90;;;1.27;;
62709;SDS011;48770;51.624;5.886;2023-07-16T03:08:38;3.53;;;1.30;;
62709;SDS011;48770;51.624;5.886;2023-07-16T03:11:03;3.80;;;1.13;;
62709;SDS011;48770;51.624;5.886;2023-07-16T03:13:28;4.53;;;1.70;;
62709;SDS011;48770;51.624;5.886;2023-07-16T03:15:54;7.00;;;1.55;;
62709;SDS011;48770;51.624;5.886;2023-07-16T03:18:19;4.63;;;1.50;;
62709;SDS011;48770;51.624;5.886;2023-07-16T03:20:45;3.13;;;1.35;;
62709;SDS011;48770;51.624;5.886;2023-07-16T03:23:10;2.92;;;1.73;;
62709;SDS011;48770;51.624;5.886;2023-07-16T03:25:35;4.07;;;1.10;;
62709;SDS011;48770;51.624;5.886;2023-07-16T03:28:01;3.27;;;1.37;;
62709;SDS011;48770;51.624;5.886;2023-07-16T03:30:26;4.27;;;1.40;;
62709;SDS011;48770;51.624;5.886;2023-07-16T03:32:51;4.82;;;1.65;;
62709;SDS011;48770;51.624;5.886;2023-07-16T03:35:17;5.35;;;1.67;;
62709;SDS011;48770;51.624;5.886;2023-07-16T03:37:42;6.18;;;1.60;;
62709;SDS011;48770;51.624;5.886;2023-07-16T03:40:14;4.03;;;1.50;;
62709;SDS011;48770;51.624;5.886;2023-07-16T03:42:41;2.53;;;1.35;;
62709;SDS011;48770;51.624;5.886;2023-07-16T03:45:06;8.75;;;1.90;;
62709;SDS011;48770;51.624;5.886;2023-07-16T03:47:32;8.45;;;1.90;;
62709;SDS011;48770;51.624;5.886;2023-07-16T03:49:57;4.00;;;1.63;;
62709;SDS011;48770;51.624;5.886;2023-07-16T03:52:23;3.80;;;1.92;;
62709;SDS011;48770;51.624;5.886;2023-07-16T03:54:49;5.65;;;1.90;;
62709;SDS011;48770;51.624;5.886;2023-07-16T03:57:15;7.15;;;2.05;;
62709;SDS011;48770;51.624;5.886;2023-07-16T03:59:40;5.27;;;2.10;;
62709;SDS011;48770;51.624;5.886;2023-07-16T04:02:07;6.07;;;2.05;;
62709;SDS011;48770;51.624;5.886;2023-07-16T04:04:32;6.05;;;2.17;;
62709;SDS011;48770;51.624;5.886;2023-07-16T04:06:57;5.05;;;1.80;;
62709;SDS011;48770;51.624;5.886;2023-07-16T04:09:23;4.50;;;2.00;;
62709;SDS011;48770;51.624;5.886;2023-07-16T04:11:48;5.68;;;1.88;;
62709;SDS011;48770;51.624;5.886;2023-07-16T04:14:14;5.80;;;1.77;;
62709;SDS011;48770;51.624;5.886;2023-07-16T04:16:39;3.80;;;1.73;;
62709;SDS011;48770;51.624;5.886;2023-07-16T04:19:04;7.90;;;2.50;;
62709;SDS011;48770;51.624;5.886;2023-07-16T04:21:30;5.00;;;2.05;;
62709;SDS011;48770;51.624;5.886;2023-07-16T04:23:55;6.20;;;2.17;;
62709;SDS011;48770;51.624;5.886;2023-07-16T04:26:20;5.03;;;1.70;;
62709;SDS011;48770;51.624;5.886;2023-07-16T04:28:46;5.50;;;2.13;;
62709;SDS011;48770;51.624;5.886;2023-07-16T04:31:11;5.80;;;2.35;;
62709;SDS011;48770;51.624;5.886;2023-07-16T04:33:36;4.10;;;1.70;;
62709;SDS011;48770;51.624;5.886;2023-07-16T04:36:02;6.32;;;2.20;;
62709;SDS011;48770;51.624;5.886;2023-07-16T04:38:27;5.18;;;1.73;;
62709;SDS011;48770;51.624;5.886;2023-07-16T04:40:53;7.47;;;2.03;;
62709;SDS011;48770;51.624;5.886;2023-07-16T04:43:18;8.57;;;1.95;;
62709;SDS011;48770;51.624;5.886;2023-07-16T04:45:44;3.63;;;1.65;;
62709;SDS011;48770;51.624;5.886;2023-07-16T04:48:11;4.20;;;1.88;;
62709;SDS011;48770;51.624;5.886;2023-07-16T04:50:38;4.90;;;2.13;;
62709;SDS011;48770;51.624;5.886;2023-07-16T04:53:03;5.55;;;2.20;;
62709;SDS011;48770;51.624;5.886;2023-07-16T04:55:29;4.90;;;2.03;;
62709;SDS011;48770;51.624;5.886;2023-07-16T04:57:54;6.30;;;2.63;;
62709;SDS011;48770;51.624;5.886;2023-07-16T05:00:21;4.95;;;2.30;;
62709;SDS011;48770;51.624;5.886;2023-07-16T05:02:47;6.95;;;2.30;;
62709;SDS011;48770;51.624;5.886;2023-07-16T05:05:12;5.82;;;2.42;;
62709;SDS011;48770;51.624;5.886;2023-07-16T05:07:38;7.85;;;2.38;;
62709;SDS011;48770;51.624;5.886;2023-07-16T05:10:03;7.90;;;2.50;;
62709;SDS011;48770;51.624;5.886;2023-07-16T05:12:29;5.53;;;2.50;;
62709;SDS011;48770;51.624;5.886;2023-07-16T05:14:54;6.30;;;2.57;;
62709;SDS011;48770;51.624;5.886;2023-07-16T05:17:20;9.83;;;2.83;;
62709;SDS011;48770;51.624;5.886;2023-07-16T05:19:45;7.85;;;2.83;;
62709;SDS011;48770;51.624;5.886;2023-07-16T05:22:10;7.93;;;2.80;;
62709;SDS011;48770;51.624;5.886;2023-07-16T05:24:36;8.40;;;2.77;;
62709;SDS011;48770;51.624;5.886;2023-07-16T05:27:01;5.50;;;2.97;;
62709;SDS011;48770;51.624;5.886;2023-07-16T05:29:26;6.80;;;2.80;;
62709;SDS011;48770;51.624;5.886;2023-07-16T05:31:52;6.18;;;2.80;;
62709;SDS011;48770;51.624;5.886;2023-07-16T05:34:17;6.68;;;2.75;;
62709;SDS011;48770;51.624;5.886;2023-07-16T05:36:42;4.70;;;2.83;;
62709;SDS011;48770;51.624;5.886;2023-07-16T05:39:10;9.57;;;2.80;;
62709;SDS011;48770;51.624;5.886;2023-07-16T05:41:39;7.85;;;3.05;;
62709;SDS011;48770;51.624;5.886;2023-07-16T05:44:05;9.82;;;2.72;;
62709;SDS011;48770;51.624;5.886;2023-07-16T05:46:30;8.18;;;2.70;;
62709;SDS011;48770;51.624;5.886;2023-07-16T05:48:56;5.22;;;2.95;;
62709;SDS011;48770;51.624;5.886;2023-07-16T05:51:21;7.57;;;2.85;;
62709;SDS011;48770;51.624;5.886;2023-07-16T05:53:46;7.32;;;3.28;;
62709;SDS011;48770;51.624;5.886;2023-07-16T05:56:12;5.40;;;2.80;;
62709;SDS011;48770;51.624;5.886;2023-07-16T05:58:37;7.97;;;2.90;;
62709;SDS011;48770;51.624;5.886;2023-07-16T06:01:04;6.65;;;2.72;;
62709;SDS011;48770;51.624;5.886;2023-07-16T06:03:29;4.33;;;2.87;;
62709;SDS011;48770;51.624;5.886;2023-07-16T06:05:54;6.73;;;2.80;;
62709;SDS011;48770;51.624;5.886;2023-07-16T06:08:19;13.48;;;2.70;;
62709;SDS011;48770;51.624;5.886;2023-07-16T06:10:45;8.40;;;3.05;;
62709;SDS011;48770;51.624;5.886;2023-07-16T06:13:10;7.28;;;3.00;;
62709;SDS011;48770;51.624;5.886;2023-07-16T06:15:36;6.00;;;2.90;;
62709;SDS011;48770;51.624;5.886;2023-07-16T06:18:01;5.90;;;2.63;;
62709;SDS011;48770;51.624;5.886;2023-07-16T06:20:27;5.93;;;2.88;;
62709;SDS011;48770;51.624;5.886;2023-07-16T06:22:53;4.38;;;2.65;;
62709;SDS011;48770;51.624;5.886;2023-07-16T06:25:19;8.05;;;3.00;;
62709;SDS011;48770;51.624;5.886;2023-07-16T06:27:44;6.57;;;3.40;;
62709;SDS011;48770;51.624;5.886;2023-07-16T06:30:09;7.93;;;2.70;;
62709;SDS011;48770;51.624;5.886;2023-07-16T06:32:35;7.07;;;2.97;;
62709;SDS011;48770;51.624;5.886;2023-07-16T06:35:00;4.75;;;2.63;;
62709;SDS011;48770;51.624;5.886;2023-07-16T06:37:25;6.30;;;3.17;;
62709;SDS011;48770;51.624;5.886;2023-07-16T06:39:50;8.43;;;3.42;;
62709;SDS011;48770;51.624;5.886;2023-07-16T06:42:16;5.38;;;2.95;;
62709;SDS011;48770;51.624;5.886;2023-07-16T06:44:41;6.67;;;2.90;;
62709;SDS011;48770;51.624;5.886;2023-07-16T06:47:06;5.57;;;2.77;;
62709;SDS011;48770;51.624;5.886;2023-07-16T06:49:32;4.40;;;2.78;;
62709;SDS011;48770;51.624;5.886;2023-07-16T06:51:57;6.45;;;2.80;;
62709;SDS011;48770;51.624;5.886;2023-07-16T06:54:22;6.55;;;2.85;;
62709;SDS011;48770;51.624;5.886;2023-07-16T06:56:48;6.07;;;3.13;;
62709;SDS011;48770;51.624;5.886;2023-07-16T06:59:13;8.93;;;2.95;;
62709;SDS011;48770;51.624;5.886;2023-07-16T07:01:38;6.53;;;3.00;;
62709;SDS011;48770;51.624;5.886;2023-07-16T07:04:04;6.65;;;3.17;;
62709;SDS011;48770;51.624;5.886;2023-07-16T07:06:29;5.10;;;3.10;;
62709;SDS011;48770;51.624;5.886;2023-07-16T07:08:54;7.28;;;3.15;;
62709;SDS011;48770;51.624;5.886;2023-07-16T07:11:20;4.53;;;3.00;;
62709;SDS011;48770;51.624;5.886;2023-07-16T07:13:45;5.28;;;3.17;;
62709;SDS011;48770;51.624;5.886;2023-07-16T07:16:10;6.97;;;3.03;;
62709;SDS011;48770;51.624;5.886;2023-07-16T07:18:36;5.97;;;3.17;;
62709;SDS011;48770;51.624;5.886;2023-07-16T07:21:01;5.50;;;3.20;;
62709;SDS011;48770;51.624;5.886;2023-07-16T07:23:27;5.68;;;3.25;;
62709;SDS011;48770;51.624;5.886;2023-07-16T07:25:52;5.77;;;3.10;;
62709;SDS011;48770;51.624;5.886;2023-07-16T07:28:18;5.13;;;3.60;;
62709;SDS011;48770;51.624;5.886;2023-07-16T07:30:44;6.43;;;3.25;;
62709;SDS011;48770;51.624;5.886;2023-07-16T07:33:10;5.90;;;3.33;;
62709;SDS011;48770;51.624;5.886;2023-07-16T07:35:36;6.22;;;3.05;;
62709;SDS011;48770;51.624;5.886;2023-07-16T07:38:01;4.67;;;3.43;;
62709;SDS011;48770;51.624;5.886;2023-07-16T07:40:27;5.18;;;3.30;;
62709;SDS011;48770;51.624;5.886;2023-07-16T07:42:52;5.63;;;3.60;;
62709;SDS011;48770;51.624;5.886;2023-07-16T07:45:17;7.97;;;3.05;;
62709;SDS011;48770;51.624;5.886;2023-07-16T07:47:42;6.10;;;3.85;;
62709;SDS011;48770;51.624;5.886;2023-07-16T07:50:08;6.03;;;3.70;;
62709;SDS011;48770;51.624;5.886;2023-07-16T07:52:33;6.78;;;3.50;;
62709;SDS011;48770;51.624;5.886;2023-07-16T07:54:59;8.27;;;3.30;;
62709;SDS011;48770;51.624;5.886;2023-07-16T07:57:24;4.70;;;3.60;;
62709;SDS011;48770;51.624;5.886;2023-07-16T07:59:49;7.72;;;3.78;;
62709;SDS011;48770;51.624;5.886;2023-07-16T08:02:17;4.85;;;3.03;;
62709;SDS011;48770;51.624;5.886;2023-07-16T08:04:43;4.35;;;2.72;;
62709;SDS011;48770;51.624;5.886;2023-07-16T08:07:09;8.43;;;3.53;;
62709;SDS011;48770;51.624;5.886;2023-07-16T08:09:34;6.50;;;3.67;;
62709;SDS011;48770;51.624;5.886;2023-07-16T08:11:59;6.28;;;3.30;;
62709;SDS011;48770;51.624;5.886;2023-07-16T08:14:24;5.93;;;3.60;;
62709;SDS011;48770;51.624;5.886;2023-07-16T08:16:50;7.97;;;3.53;;
62709;SDS011;48770;51.624;5.886;2023-07-16T08:19:15;8.63;;;4.03;;
62709;SDS011;48770;51.624;5.886;2023-07-16T08:21:40;7.53;;;3.40;;
62709;SDS011;48770;51.624;5.886;2023-07-16T08:24:06;5.72;;;3.60;;
62709;SDS011;48770;51.624;5.886;2023-07-16T08:26:31;7.90;;;3.47;;
62709;SDS011;48770;51.624;5.886;2023-07-16T08:28:57;7.18;;;3.58;;
62709;SDS011;48770;51.624;5.886;2023-07-16T08:31:22;6.90;;;3.60;;
62709;SDS011;48770;51.624;5.886;2023-07-16T08:33:48;8.03;;;3.80;;
62709;SDS011;48770;51.624;5.886;2023-07-16T08:36:13;6.10;;;3.88;;
62709;SDS011;48770;51.624;5.886;2023-07-16T08:38:38;8.77;;;3.60;;
62709;SDS011;48770;51.624;5.886;2023-07-16T08:41:03;6.47;;;3.53;;
62709;SDS011;48770;51.624;5.886;2023-07-16T08:43:29;6.50;;;3.40;;
62709;SDS011;48770;51.624;5.886;2023-07-16T08:45:55;6.78;;;4.07;;
62709;SDS011;48770;51.624;5.886;2023-07-16T08:48:20;7.55;;;3.90;;
62709;SDS011;48770;51.624;5.886;2023-07-16T08:50:47;7.25;;;3.72;;
62709;SDS011;48770;51.624;5.886;2023-07-16T08:53:17;8.65;;;3.58;;
62709;SDS011;48770;51.624;5.886;2023-07-16T08:55:44;5.47;;;3.30;;
62709;SDS011;48770;51.624;5.886;2023-07-16T08:58:09;5.82;;;3.60;;
62709;SDS011;48770;51.624;5.886;2023-07-16T09:00:36;7.45;;;3.78;;
62709;SDS011;48770;51.624;5.886;2023-07-16T09:03:02;8.55;;;3.67;;
62709;SDS011;48770;51.624;5.886;2023-07-16T09:05:29;6.00;;;3.40;;
62709;SDS011;48770;51.624;5.886;2023-07-16T09:07:54;7.20;;;3.80;;
62709;SDS011;48770;51.624;5.886;2023-07-16T09:10:19;6.10;;;3.30;;
62709;SDS011;48770;51.624;5.886;2023-07-16T09:12:45;5.18;;;3.40;;
62709;SDS011;48770;51.624;5.886;2023-07-16T09:15:11;7.75;;;3.33;;
62709;SDS011;48770;51.624;5.886;2023-07-16T09:17:38;6.97;;;3.58;;
62709;SDS011;48770;51.624;5.886;2023-07-16T09:20:04;8.43;;;3.38;;
62709;SDS011;48770;51.624;5.886;2023-07-16T09:22:33;7.10;;;3.97;;
62709;SDS011;48770;51.624;5.886;2023-07-16T09:24:59;5.53;;;3.17;;
62709;SDS011;48770;51.624;5.886;2023-07-16T09:27:29;5.10;;;2.92;;
62709;SDS011;48770;51.624;5.886;2023-07-16T09:29:55;6.43;;;3.33;;
62709;SDS011;48770;51.624;5.886;2023-07-16T09:32:20;5.28;;;3.17;;
62709;SDS011;48770;51.624;5.886;2023-07-16T09:34:49;4.63;;;3.03;;
62709;SDS011;48770;51.624;5.886;2023-07-16T09:37:15;4.90;;;3.47;;
62709;SDS011;48770;51.624;5.886;2023-07-16T09:39:42;6.65;;;2.78;;
62709;SDS011;48770;51.624;5.886;2023-07-16T09:42:18;6.88;;;3.15;;
62709;SDS011;48770;51.624;5.886;2023-07-16T09:44:47;6.78;;;3.20;;
62709;SDS011;48770;51.624;5.886;2023-07-16T09:47:17;10.18;;;3.70;;
62709;SDS011;48770;51.624;5.886;2023-07-16T09:49:42;6.90;;;3.30;;
62709;SDS011;48770;51.624;5.886;2023-07-16T09:52:08;8.63;;;3.20;;
62709;SDS011;48770;51.624;5.886;2023-07-16T09:54:34;6.70;;;3.30;;
62709;SDS011;48770;51.624;5.886;2023-07-16T09:57:02;5.72;;;2.75;;
62709;SDS011;48770;51.624;5.886;2023-07-16T09:59:30;8.63;;;3.30;;
62709;SDS011;48770;51.624;5.886;2023-07-16T10:01:57;9.77;;;3.38;;
62709;SDS011;48770;51.624;5.886;2023-07-16T10:04:23;8.18;;;3.20;;
62709;SDS011;48770;51.624;5.886;2023-07-16T10:06:53;4.60;;;2.75;;
62709;SDS011;48770;51.624;5.886;2023-07-16T10:09:38;5.13;;;3.13;;
62709;SDS011;48770;51.624;5.886;2023-07-16T10:12:11;6.50;;;3.20;;
62709;SDS011;48770;51.624;5.886;2023-07-16T10:14:44;5.75;;;2.95;;
62709;SDS011;48770;51.624;5.886;2023-07-16T10:17:17;5.95;;;2.70;;
62709;SDS011;48770;51.624;5.886;2023-07-16T10:20:00;4.95;;;2.83;;
62709;SDS011;48770;51.624;5.886;2023-07-16T10:22:33;5.40;;;2.83;;
62709;SDS011;48770;51.624;5.886;2023-07-16T10:25:10;8.15;;;2.95;;
62709;SDS011;48770;51.624;5.886;2023-07-16T10:27:47;6.05;;;2.70;;
62709;SDS011;48770;51.624;5.886;2023-07-16T10:30:15;8.25;;;3.20;;
62709;SDS011;48770;51.624;5.886;2023-07-16T10:32:40;5.00;;;2.55;;
62709;SDS011;48770;51.624;5.886;2023-07-16T10:35:06;4.93;;;2.55;;
62709;SDS011;48770;51.624;5.886;2023-07-16T10:37:36;5.78;;;2.75;;
62709;SDS011;48770;51.624;5.886;2023-07-16T10:40:03;3.95;;;2.25;;
62709;SDS011;48770;51.624;5.886;2023-07-16T10:42:29;6.57;;;2.83;;
62709;SDS011;48770;51.624;5.886;2023-07-16T10:44:59;5.25;;;2.67;;
62709;SDS011;48770;51.624;5.886;2023-07-16T10:47:39;3.28;;;2.25;;
62709;SDS011;48770;51.624;5.886;2023-07-16T10:50:15;5.90;;;2.55;;
62709;SDS011;48770;51.624;5.886;2023-07-16T10:52:41;5.90;;;2.50;;
62709;SDS011;48770;51.624;5.886;2023-07-16T10:55:06;7.10;;;2.65;;
62709;SDS011;48770;51.624;5.886;2023-07-16T10:57:32;5.28;;;2.38;;
62709;SDS011;48770;51.624;5.886;2023-07-16T10:59:57;3.95;;;2.25;;
62709;SDS011;48770;51.624;5.886;2023-07-16T11:02:24;7.45;;;3.08;;
62709;SDS011;48770;51.624;5.886;2023-07-16T11:04:50;9.27;;;2.85;;
62709;SDS011;48770;51.624;5.886;2023-07-16T11:07:20;6.72;;;3.15;;
62709;SDS011;48770;51.624;5.886;2023-07-16T11:09:46;6.30;;;2.58;;
62709;SDS011;48770;51.624;5.886;2023-07-16T11:12:17;5.35;;;2.33;;
62709;SDS011;48770;51.624;5.886;2023-07-16T11:14:45;4.13;;;2.83;;
62709;SDS011;48770;51.624;5.886;2023-07-16T11:17:12;6.30;;;2.60;;
62709;SDS011;48770;51.624;5.886;2023-07-16T11:19:38;5.03;;;2.47;;
62709;SDS011;48770;51.624;5.886;2023-07-16T11:22:07;6.57;;;2.80;;
62709;SDS011;48770;51.624;5.886;2023-07-16T11:24:36;3.72;;;2.55;;
62709;SDS011;48770;51.624;5.886;2023-07-16T11:27:12;5.95;;;2.58;;
62709;SDS011;48770;51.624;5.886;2023-07-16T11:32:11;5.72;;;2.97;;
62709;SDS011;48770;51.624;5.886;2023-07-16T11:34:37;5.00;;;2.65;;
62709;SDS011;48770;51.624;5.886;2023-07-16T11:37:09;6.07;;;3.28;;
62709;SDS011;48770;51.624;5.886;2023-07-16T11:39:35;6.32;;;3.08;;
62709;SDS011;48770;51.624;5.886;2023-07-16T11:42:02;5.55;;;3.00;;
62709;SDS011;48770;51.624;5.886;2023-07-16T11:44:34;7.43;;;2.92;;
62709;SDS011;48770;51.624;5.886;2023-07-16T11:47:01;5.78;;;3.05;;
62709;SDS011;48770;51.624;5.886;2023-07-16T11:49:27;6.35;;;3.25;;
62709;SDS011;48770;51.624;5.886;2023-07-16T11:51:53;4.72;;;2.65;;
62709;SDS011;48770;51.624;5.886;2023-07-16T11:54:18;4.45;;;3.05;;
62709;SDS011;48770;51.624;5.886;2023-07-16T11:56:43;7.03;;;3.03;;
62709;SDS011;48770;51.624;5.886;2023-07-16T11:59:08;8.15;;;2.92;;
62709;SDS011;48770;51.624;5.886;2023-07-16T12:01:34;7.07;;;2.87;;
62709;SDS011;48770;51.624;5.886;2023-07-16T12:03:59;5.85;;;2.70;;
62709;SDS011;48770;51.624;5.886;2023-07-16T12:06:24;5.30;;;2.90;;
62709;SDS011;48770;51.624;5.886;2023-07-16T12:08:50;5.72;;;2.58;;
62709;SDS011;48770;51.624;5.886;2023-07-16T12:11:15;6.18;;;2.85;;
62709;SDS011;48770;51.624;5.886;2023-07-16T12:13:40;5.82;;;3.13;;
62709;SDS011;48770;51.624;5.886;2023-07-16T12:16:06;3.47;;;2.80;;
62709;SDS011;48770;51.624;5.886;2023-07-16T12:18:31;4.70;;;2.65;;
62709;SDS011;48770;51.624;5.886;2023-07-16T12:20:56;5.90;;;2.75;;
62709;SDS011;48770;51.624;5.886;2023-07-16T12:23:22;4.57;;;2.70;;
62709;SDS011;48770;51.624;5.886;2023-07-16T12:25:48;6.50;;;2.58;;
62709;SDS011;48770;51.624;5.886;2023-07-16T12:28:14;3.63;;;2.33;;
62709;SDS011;48770;51.624;5.886;2023-07-16T12:30:40;4.00;;;2.60;;
62709;SDS011;48770;51.624;5.886;2023-07-16T12:33:05;6.30;;;2.92;;
62709;SDS011;48770;51.624;5.886;2023-07-16T12:35:30;3.92;;;2.72;;
62709;SDS011;48770;51.624;5.886;2023-07-16T12:37:56;5.18;;;2.72;;
62709;SDS011;48770;51.624;5.886;2023-07-16T12:40:23;5.53;;;2.80;;
62709;SDS011;48770;51.624;5.886;2023-07-16T12:42:48;5.70;;;2.78;;
62709;SDS011;48770;51.624;5.886;2023-07-16T12:45:14;6.60;;;3.00;;
62709;SDS011;48770;51.624;5.886;2023-07-16T12:47:39;5.00;;;3.08;;
62709;SDS011;48770;51.624;5.886;2023-07-16T12:50:05;6.32;;;2.97;;
62709;SDS011;48770;51.624;5.886;2023-07-16T12:52:31;5.60;;;3.03;;
62709;SDS011;48770;51.624;5.886;2023-07-16T12:54:56;5.65;;;3.28;;
62709;SDS011;48770;51.624;5.886;2023-07-16T12:57:21;4.57;;;2.70;;
62709;SDS011;48770;51.624;5.886;2023-07-16T12:59:47;4.20;;;2.70;;
62709;SDS011;48770;51.624;5.886;2023-07-16T13:02:12;4.97;;;2.63;;
62709;SDS011;48770;51.624;5.886;2023-07-16T13:04:37;8.52;;;2.85;;
62709;SDS011;48770;51.624;5.886;2023-07-16T13:07:03;4.65;;;2.50;;
62709;SDS011;48770;51.624;5.886;2023-07-16T13:09:28;6.07;;;2.63;;
62709;SDS011;48770;51.624;5.886;2023-07-16T13:11:53;3.58;;;2.33;;
62709;SDS011;48770;51.624;5.886;2023-07-16T13:14:19;5.88;;;3.28;;
62709;SDS011;48770;51.624;5.886;2023-07-16T13:16:44;7.40;;;3.50;;
62709;SDS011;48770;51.624;5.886;2023-07-16T13:19:09;7.20;;;2.53;;
62709;SDS011;48770;51.624;5.886;2023-07-16T13:21:34;5.00;;;2.67;;
62709;SDS011;48770;51.624;5.886;2023-07-16T13:24:00;6.30;;;2.75;;
62709;SDS011;48770;51.624;5.886;2023-07-16T13:26:25;6.93;;;2.90;;
62709;SDS011;48770;51.624;5.886;2023-07-16T13:28:50;5.40;;;2.95;;
62709;SDS011;48770;51.624;5.886;2023-07-16T13:31:17;6.03;;;2.88;;
62709;SDS011;48770;51.624;5.886;2023-07-16T13:33:42;5.25;;;3.50;;
62709;SDS011;48770;51.624;5.886;2023-07-16T13:36:08;6.63;;;2.80;;
62709;SDS011;48770;51.624;5.886;2023-07-16T13:38:33;5.80;;;3.07;;
62709;SDS011;48770;51.624;5.886;2023-07-16T13:40:59;4.22;;;2.78;;
62709;SDS011;48770;51.624;5.886;2023-07-16T13:43:24;5.63;;;2.83;;
62709;SDS011;48770;51.624;5.886;2023-07-16T13:45:49;6.30;;;2.83;;
62709;SDS011;48770;51.624;5.886;2023-07-16T13:48:14;8.77;;;3.28;;
62709;SDS011;48770;51.624;5.886;2023-07-16T13:50:40;5.63;;;2.80;;
62709;SDS011;48770;51.624;5.886;2023-07-16T13:53:05;6.97;;;2.95;;
62709;SDS011;48770;51.624;5.886;2023-07-16T13:55:31;5.18;;;3.05;;
62709;SDS011;48770;51.624;5.886;2023-07-16T13:57:56;7.03;;;3.03;;
62709;SDS011;48770;51.624;5.886;2023-07-16T14:00:22;5.50;;;3.33;;
62709;SDS011;48770;51.624;5.886;2023-07-16T14:02:47;3.35;;;2.85;;
62709;SDS011;48770;51.624;5.886;2023-07-16T14:05:12;6.97;;;2.70;;
62709;SDS011;48770;51.624;5.886;2023-07-16T14:07:38;8.43;;;3.00;;
62709;SDS011;48770;51.624;5.886;2023-07-16T14:10:03;6.18;;;2.75;;
62709;SDS011;48770;51.624;5.886;2023-07-16T14:12:29;4.43;;;2.80;;
62709;SDS011;48770;51.624;5.886;2023-07-16T14:14:55;5.15;;;2.90;;
62709;SDS011;48770;51.624;5.886;2023-07-16T14:17:20;3.72;;;2.08;;
62709;SDS011;48770;51.624;5.886;2023-07-16T14:19:45;4.65;;;2.95;;
62709;SDS011;48770;51.624;5.886;2023-07-16T14:22:11;4.90;;;2.60;;
62709;SDS011;48770;51.624;5.886;2023-07-16T14:24:38;5.10;;;2.40;;
62709;SDS011;48770;51.624;5.886;2023-07-16T14:27:04;5.57;;;2.80;;
62709;SDS011;48770;51.624;5.886;2023-07-16T14:29:31;3.63;;;2.38;;
62709;SDS011;48770;51.624;5.886;2023-07-16T14:31:56;5.40;;;2.40;;
62709;SDS011;48770;51.624;5.886;2023-07-16T14:34:22;3.58;;;2.22;;
62709;SDS011;48770;51.624;5.886;2023-07-16T14:36:48;5.63;;;2.70;;
62709;SDS011;48770;51.624;5.886;2023-07-16T14:39:13;6.63;;;2.88;;
62709;SDS011;48770;51.624;5.886;2023-07-16T14:41:38;5.43;;;2.80;;
62709;SDS011;48770;51.624;5.886;2023-07-16T14:44:04;6.68;;;2.75;;
62709;SDS011;48770;51.624;5.886;2023-07-16T14:46:30;6.68;;;2.70;;
62709;SDS011;48770;51.624;5.886;2023-07-16T14:48:55;5.75;;;2.75;;